createdAt,value
2023-04-10T00:00:52.843Z,5.30
2023-04-10T00:03:19.919Z,5.20
2023-04-10T00:05:46.885Z,5.20
2023-04-10T00:08:13.794Z,5.20
2023-04-10T00:10:40.667Z,5.20
2023-04-10T00:13:07.589Z,5.20
2023-04-10T00:15:34.415Z,5.20
2023-04-10T00:18:01.343Z,5.10
2023-04-10T00:20:28.276Z,5.10
2023-04-10T00:22:55.130Z,5.10
2023-04-10T00:25:22.072Z,5.00
2023-04-10T00:27:49.267Z,5.00
2023-04-10T00:30:16.146Z,5.00
2023-04-10T00:32:43.027Z,4.90
2023-04-10T00:35:09.960Z,4.90
2023-04-10T00:37:37.007Z,4.90
2023-04-10T00:40:04.919Z,4.90
2023-04-10T00:42:32.200Z,4.90
2023-04-10T00:44:59.879Z,4.90
2023-04-10T00:47:28.145Z,4.90
2023-04-10T00:49:55.332Z,4.90
2023-04-10T00:52:22.397Z,4.80
2023-04-10T00:54:49.290Z,4.80
2023-04-10T00:57:16.248Z,4.80
2023-04-10T00:59:43.249Z,4.70
2023-04-10T01:02:10.246Z,4.70
2023-04-10T01:04:38.060Z,4.70
2023-04-10T01:07:10.060Z,4.70
2023-04-10T01:09:53.043Z,4.70
2023-04-10T01:12:44.540Z,4.70
2023-04-10T01:15:23.728Z,4.60
2023-04-10T01:18:07.162Z,4.60
2023-04-10T01:20:38.475Z,4.60
2023-04-10T01:23:35.780Z,4.60
2023-04-10T01:26:09.936Z,4.60
2023-04-10T01:29:21.091Z,4.60
2023-04-10T01:31:59.621Z,4.50
2023-04-10T01:34:33.074Z,4.60
2023-04-10T01:37:04.864Z,4.50
2023-04-10T01:39:36.317Z,4.50
2023-04-10T01:42:05.656Z,4.50
2023-04-10T01:44:34.111Z,4.50
2023-04-10T01:47:02.506Z,4.40
2023-04-10T01:49:31.727Z,4.40
2023-04-10T01:52:01.145Z,4.40
2023-04-10T01:54:28.926Z,4.40
2023-04-10T01:56:55.878Z,4.40
2023-04-10T01:59:23.216Z,4.40
2023-04-10T02:01:55.621Z,4.40
2023-04-10T02:04:22.956Z,4.30
2023-04-10T02:06:59.035Z,4.30
2023-04-10T02:09:31.229Z,4.30
2023-04-10T02:12:16.137Z,4.30
2023-04-10T02:14:45.620Z,4.40
2023-04-10T02:17:18.198Z,4.30
2023-04-10T02:19:47.713Z,4.30
2023-04-10T02:22:15.811Z,4.30
2023-04-10T02:24:43.186Z,4.30
2023-04-10T02:27:10.065Z,4.20
2023-04-10T02:29:36.997Z,4.30
2023-04-10T02:32:04.670Z,4.20
2023-04-10T02:34:31.558Z,4.10
2023-04-10T02:36:58.410Z,4.10
2023-04-10T02:39:25.328Z,4.10
2023-04-10T02:41:52.209Z,4.10
2023-04-10T02:44:19.136Z,4.10
2023-04-10T02:46:46.042Z,4.10
2023-04-10T02:49:13.027Z,4.10
2023-04-10T02:51:39.876Z,4.00
2023-04-10T02:54:06.754Z,4.00
2023-04-10T02:56:36.567Z,4.00
2023-04-10T02:59:03.429Z,4.00
2023-04-10T03:01:30.514Z,4.00
2023-04-10T03:03:57.719Z,3.90
2023-04-10T03:06:25.036Z,3.90
2023-04-10T03:08:51.999Z,3.90
2023-04-10T03:11:19.213Z,3.90
2023-04-10T03:13:46.205Z,3.90
2023-04-10T03:16:13.232Z,3.90
2023-04-10T03:18:40.174Z,3.90
2023-04-10T03:21:07.423Z,3.90
2023-04-10T03:23:34.424Z,3.90
2023-04-10T03:26:01.401Z,3.90
2023-04-10T03:28:28.304Z,3.90
2023-04-10T03:30:55.991Z,3.90
2023-04-10T03:33:22.933Z,3.80
2023-04-10T03:35:50.185Z,3.80
2023-04-10T03:38:17.117Z,3.80
2023-04-10T03:40:43.989Z,3.80
2023-04-10T03:43:10.871Z,3.70
2023-04-10T03:45:37.786Z,3.70
2023-04-10T03:48:04.808Z,3.70
2023-04-10T03:50:31.856Z,3.70
2023-04-10T03:52:58.749Z,3.70
2023-04-10T03:55:25.593Z,3.60
2023-04-10T03:57:52.489Z,3.60
2023-04-10T04:00:21.003Z,3.60
2023-04-10T04:02:48.813Z,3.60
2023-04-10T04:05:15.929Z,3.60
2023-04-10T04:07:42.800Z,3.60
2023-04-10T04:10:09.894Z,3.60
2023-04-10T04:12:36.784Z,3.60
2023-04-10T04:15:03.960Z,3.60
2023-04-10T04:17:30.876Z,3.70
2023-04-10T04:19:57.817Z,3.60
2023-04-10T04:22:24.664Z,3.60
2023-04-10T04:24:51.531Z,3.60
2023-04-10T04:27:18.550Z,3.60
2023-04-10T04:29:45.443Z,3.60
2023-04-10T04:32:12.378Z,3.60
2023-04-10T04:34:39.240Z,3.70
2023-04-10T04:37:06.124Z,3.70
2023-04-10T04:39:33.210Z,3.70
2023-04-10T04:42:00.212Z,3.70
2023-04-10T04:44:27.041Z,3.70
2023-04-10T04:46:53.888Z,3.70
2023-04-10T04:49:20.779Z,3.70
2023-04-10T04:51:47.669Z,3.80
2023-04-10T04:54:14.598Z,3.80
2023-04-10T04:56:41.465Z,3.70
2023-04-10T04:59:08.311Z,3.70
2023-04-10T05:01:35.261Z,3.80
2023-04-10T05:04:02.361Z,3.80
2023-04-10T05:06:29.369Z,3.80
2023-04-10T05:08:56.467Z,3.70
2023-04-10T05:11:23.477Z,3.80
2023-04-10T05:13:50.351Z,3.80
2023-04-10T05:16:17.308Z,3.80
2023-04-10T05:18:44.240Z,3.90
2023-04-10T05:21:11.173Z,3.80
2023-04-10T05:23:38.058Z,3.90
2023-04-10T05:26:05.140Z,3.90
2023-04-10T05:28:32.215Z,3.90
2023-04-10T05:30:59.180Z,3.90
2023-04-10T05:33:26.136Z,3.90
2023-04-10T05:35:53.323Z,4.00
2023-04-10T05:38:20.256Z,4.00
2023-04-10T05:40:47.634Z,4.10
2023-04-10T05:43:14.487Z,4.10
2023-04-10T05:45:44.850Z,4.10
2023-04-10T05:48:11.712Z,4.20
2023-04-10T05:50:38.570Z,4.30
2023-04-10T05:53:05.508Z,4.30
2023-04-10T05:55:32.449Z,4.40
2023-04-10T05:57:59.328Z,4.40
2023-04-10T06:00:26.306Z,4.50
2023-04-10T06:02:53.384Z,4.60
2023-04-10T06:05:20.588Z,4.70
2023-04-10T06:07:47.488Z,4.70
2023-04-10T06:10:14.360Z,4.80
2023-04-10T06:12:41.229Z,4.90
2023-04-10T06:15:08.655Z,5.00
2023-04-10T06:17:35.592Z,5.20
2023-04-10T06:20:05.801Z,5.30
2023-04-10T06:22:32.697Z,5.40
2023-04-10T06:24:59.632Z,5.50
2023-04-10T06:27:28.167Z,5.60
2023-04-10T06:29:55.044Z,5.70
2023-04-10T06:32:21.902Z,5.80
2023-04-10T06:34:48.748Z,5.90
2023-04-10T06:37:15.597Z,5.90
2023-04-10T06:39:42.541Z,6.00
2023-04-10T06:42:09.390Z,6.10
2023-04-10T06:44:36.241Z,6.20
2023-04-10T06:47:03.199Z,6.30
2023-04-10T06:49:30.128Z,6.20
2023-04-10T06:51:57.258Z,6.30
2023-04-10T06:54:24.188Z,6.30
2023-04-10T06:56:51.087Z,6.30
2023-04-10T06:59:18.017Z,6.50
2023-04-10T07:01:44.914Z,6.60
2023-04-10T07:04:11.984Z,6.60
2023-04-10T07:06:40.057Z,6.70
2023-04-10T07:09:06.978Z,6.90
2023-04-10T07:11:33.933Z,6.90
2023-04-10T07:14:00.812Z,7.20
2023-04-10T07:16:27.780Z,7.20
2023-04-10T07:18:54.899Z,7.30
2023-04-10T07:21:21.915Z,7.40
2023-04-10T07:23:48.787Z,7.60
2023-04-10T07:26:15.643Z,7.70
2023-04-10T07:28:42.478Z,7.90
2023-04-10T07:31:09.400Z,8.20
2023-04-10T07:33:36.390Z,8.30
2023-04-10T07:36:03.468Z,8.40
2023-04-10T07:38:30.346Z,8.70
2023-04-10T07:41:00.637Z,8.70
2023-04-10T07:43:27.580Z,8.90
2023-04-10T07:45:54.514Z,9.00
2023-04-10T07:48:21.397Z,9.00
2023-04-10T07:50:48.380Z,9.30
2023-04-10T07:53:15.283Z,9.50
2023-04-10T07:55:46.313Z,9.50
2023-04-10T07:58:13.189Z,9.40
2023-04-10T08:00:40.083Z,9.60
2023-04-10T08:03:07.238Z,9.80
2023-04-10T08:05:34.446Z,9.70
2023-04-10T08:08:01.334Z,10.00
2023-04-10T08:10:28.234Z,10.00
2023-04-10T08:12:55.271Z,10.10
2023-04-10T08:15:22.180Z,10.20
2023-04-10T08:17:49.103Z,10.40
2023-04-10T08:20:19.561Z,10.70
2023-04-10T08:22:46.529Z,10.80
2023-04-10T08:25:13.503Z,10.90
2023-04-10T08:27:40.439Z,11.40
2023-04-10T08:30:07.993Z,12.20
2023-04-10T08:32:36.245Z,12.20
2023-04-10T08:35:03.272Z,12.40
2023-04-10T08:37:30.178Z,13.30
2023-04-10T08:39:57.021Z,13.70
2023-04-10T08:42:23.966Z,14.00
2023-04-10T08:44:50.895Z,14.70
2023-04-10T08:47:21.001Z,14.60
2023-04-10T08:50:00.873Z,14.40
2023-04-10T08:52:30.696Z,14.90
2023-04-10T08:54:59.780Z,15.80
2023-04-10T08:57:26.975Z,15.50
2023-04-10T08:59:53.927Z,16.20
2023-04-10T09:02:21.866Z,16.20
2023-04-10T09:04:50.997Z,16.50
2023-04-10T09:07:18.494Z,16.40
2023-04-10T09:09:45.515Z,16.30
2023-04-10T09:12:13.686Z,16.30
2023-04-10T09:14:41.199Z,15.90
2023-04-10T09:17:15.389Z,15.90
2023-04-10T09:19:43.272Z,15.50
2023-04-10T09:22:10.295Z,16.00
2023-04-10T09:24:41.840Z,15.10
2023-04-10T09:27:09.854Z,15.30
2023-04-10T09:29:46.933Z,15.60
2023-04-10T09:32:13.957Z,15.40
2023-04-10T09:34:55.238Z,14.80
2023-04-10T09:37:22.095Z,14.50
2023-04-10T09:39:49.090Z,14.60
2023-04-10T09:42:16.021Z,14.90
2023-04-10T09:44:43.353Z,15.40
2023-04-10T09:47:18.548Z,15.80
2023-04-10T09:49:50.502Z,15.70
2023-04-10T09:52:21.792Z,15.80
2023-04-10T09:54:48.830Z,16.00
2023-04-10T09:57:18.429Z,16.00
2023-04-10T09:59:56.418Z,16.20
2023-04-10T10:02:25.452Z,16.70
2023-04-10T10:04:53.415Z,16.10
2023-04-10T10:07:22.784Z,15.90
2023-04-10T10:09:51.611Z,16.10
2023-04-10T10:12:53.114Z,16.50
2023-04-10T10:15:24.359Z,16.90
2023-04-10T10:18:05.292Z,16.60
2023-04-10T10:20:35.488Z,16.70
2023-04-10T10:23:04.240Z,16.60
2023-04-10T10:25:31.747Z,16.80
2023-04-10T10:28:02.980Z,17.00
2023-04-10T10:30:35.186Z,16.80
2023-04-10T10:33:05.983Z,16.70
2023-04-10T10:35:34.976Z,16.50
2023-04-10T10:38:04.189Z,17.50
2023-04-10T10:40:55.019Z,18.00
2023-04-10T10:43:35.583Z,18.60
2023-04-10T10:46:15.460Z,18.00
2023-04-10T10:48:59.309Z,17.30
2023-04-10T10:51:51.474Z,17.80
2023-04-10T10:54:28.828Z,17.90
2023-04-10T10:56:55.771Z,17.90
2023-04-10T10:59:44.296Z,18.60
2023-04-10T11:02:18.812Z,17.60
2023-04-10T11:04:49.425Z,18.10
2023-04-10T11:07:17.139Z,17.60
2023-04-10T11:09:46.715Z,17.70
2023-04-10T11:12:13.608Z,18.00
2023-04-10T11:14:42.475Z,17.50
2023-04-10T11:17:10.288Z,18.60
2023-04-10T11:19:59.706Z,18.40
2023-04-10T11:22:27.172Z,19.10
2023-04-10T11:24:59.450Z,19.10
2023-04-10T11:27:43.820Z,18.90
2023-04-10T11:30:33.940Z,18.70
2023-04-10T11:33:02.214Z,18.30
2023-04-10T11:35:30.129Z,18.10
2023-04-10T11:38:17.646Z,19.10
2023-04-10T11:41:02.582Z,18.80
2023-04-10T11:43:29.773Z,18.80
2023-04-10T11:46:05.025Z,18.60
2023-04-10T11:48:32.611Z,18.50
2023-04-10T11:50:59.928Z,18.40
2023-04-10T11:53:26.869Z,18.40
2023-04-10T11:55:53.744Z,18.90
2023-04-10T11:58:28.293Z,19.00
2023-04-10T12:01:04.095Z,18.80
2023-04-10T12:03:35.189Z,20.10
2023-04-10T12:06:03.220Z,19.90
2023-04-10T12:08:56.818Z,20.50
2023-04-10T12:11:27.165Z,20.80
2023-04-10T12:13:56.121Z,20.60
2023-04-10T12:16:23.396Z,20.30
2023-04-10T12:18:50.934Z,21.70
2023-04-10T12:21:18.108Z,20.10
2023-04-10T12:23:45.041Z,20.10
2023-04-10T12:26:14.782Z,19.80
2023-04-10T12:28:43.391Z,20.20
2023-04-10T12:31:10.476Z,18.80
2023-04-10T12:33:37.368Z,19.40
2023-04-10T12:36:04.627Z,19.60
2023-04-10T12:38:43.990Z,19.50
2023-04-10T12:41:12.098Z,18.80
2023-04-10T12:43:42.832Z,19.70
2023-04-10T12:46:10.870Z,19.10
2023-04-10T12:48:37.875Z,18.50
2023-04-10T12:51:04.940Z,19.10
2023-04-10T12:53:31.926Z,19.30
2023-04-10T12:56:06.224Z,19.50
2023-04-10T12:58:33.428Z,19.10
2023-04-10T13:01:08.304Z,19.30
2023-04-10T13:03:36.687Z,18.60
2023-04-10T13:06:06.258Z,19.00
2023-04-10T13:08:33.854Z,18.90
2023-04-10T13:11:00.730Z,19.60
2023-04-10T13:13:27.619Z,19.10
2023-04-10T13:15:54.627Z,20.10
2023-04-10T13:18:21.533Z,19.30
2023-04-10T13:20:48.389Z,20.30
2023-04-10T13:23:15.318Z,19.40
2023-04-10T13:25:42.293Z,19.90
2023-04-10T13:28:09.361Z,20.20
2023-04-10T13:30:36.841Z,19.60
2023-04-10T13:33:03.781Z,19.70
2023-04-10T13:35:30.774Z,19.20
2023-04-10T13:37:57.696Z,19.60
2023-04-10T13:40:24.588Z,19.70
2023-04-10T13:42:51.484Z,19.60
2023-04-10T13:45:18.496Z,19.20
2023-04-10T13:47:45.375Z,19.60
2023-04-10T13:50:12.316Z,19.80
2023-04-10T13:52:39.248Z,19.60
2023-04-10T13:55:06.934Z,19.50
2023-04-10T13:57:33.825Z,20.10
2023-04-10T14:00:00.812Z,19.30
2023-04-10T14:02:27.821Z,19.10
2023-04-10T14:04:54.859Z,18.80
2023-04-10T14:07:21.783Z,19.50
2023-04-10T14:09:48.633Z,19.40
2023-04-10T14:12:15.534Z,18.80
2023-04-10T14:14:43.617Z,18.40
2023-04-10T14:17:10.678Z,18.40
2023-04-10T14:19:37.990Z,18.70
2023-04-10T14:22:04.893Z,18.10
2023-04-10T14:24:31.824Z,17.60
2023-04-10T14:26:58.886Z,17.80
2023-04-10T14:29:36.049Z,17.60
2023-04-10T14:32:06.242Z,17.60
2023-04-10T14:34:33.143Z,18.00
2023-04-10T14:36:59.983Z,17.70
2023-04-10T14:39:27.066Z,18.00
2023-04-10T14:41:53.926Z,18.40
2023-04-10T14:44:20.800Z,18.10
2023-04-10T14:46:47.737Z,18.50
2023-04-10T14:49:14.655Z,18.10
2023-04-10T14:51:45.590Z,18.10
2023-04-10T14:54:12.486Z,17.90
2023-04-10T14:56:39.395Z,17.80
2023-04-10T14:59:06.334Z,17.60
2023-04-10T15:01:33.512Z,17.80
2023-04-10T15:04:00.625Z,17.50
2023-04-10T15:06:27.639Z,17.40
2023-04-10T15:08:55.615Z,17.40
2023-04-10T15:11:22.476Z,17.60
2023-04-10T15:13:49.460Z,17.70
2023-04-10T15:16:16.686Z,17.70
2023-04-10T15:18:46.333Z,17.40
2023-04-10T15:21:13.223Z,17.30
2023-04-10T15:23:40.134Z,16.90
2023-04-10T15:26:12.050Z,16.90
2023-04-10T15:28:38.989Z,17.10
2023-04-10T15:31:06.279Z,17.00
2023-04-10T15:33:33.226Z,16.70
2023-04-10T15:36:00.164Z,16.50
2023-04-10T15:38:27.322Z,16.50
2023-04-10T15:40:54.489Z,16.40
2023-04-10T15:43:21.582Z,16.40
2023-04-10T15:45:48.435Z,16.30
2023-04-10T15:48:15.290Z,16.10
2023-04-10T15:50:42.396Z,16.10
2023-04-10T15:53:09.571Z,16.20
2023-04-10T15:55:40.476Z,16.10
2023-04-10T15:58:07.379Z,16.10
2023-04-10T16:00:34.312Z,16.00
2023-04-10T16:03:01.302Z,16.00
2023-04-10T16:05:28.272Z,15.90
2023-04-10T16:07:55.545Z,15.90
2023-04-10T16:10:22.404Z,16.00
2023-04-10T16:12:49.310Z,15.90
2023-04-10T16:15:16.812Z,15.80
2023-04-10T16:17:43.700Z,15.80
2023-04-10T16:20:10.962Z,15.80
2023-04-10T16:22:37.810Z,15.70
2023-04-10T16:27:51.770Z,15.60
2023-04-10T16:30:18.640Z,15.60
2023-04-10T16:32:45.659Z,15.60
2023-04-10T16:35:12.583Z,15.60
2023-04-10T16:37:39.475Z,15.50
2023-04-10T16:40:07.021Z,15.40
2023-04-10T16:42:33.958Z,15.40
2023-04-10T16:45:00.791Z,15.40
2023-04-10T16:47:27.961Z,15.30
2023-04-10T16:49:54.810Z,15.30
2023-04-10T16:52:21.731Z,15.30
2023-04-10T16:54:48.613Z,15.20
2023-04-10T16:57:15.456Z,15.20
2023-04-10T16:59:42.321Z,15.20
2023-04-10T17:02:09.247Z,15.10
2023-04-10T17:04:36.130Z,15.10
2023-04-10T17:07:02.988Z,15.00
2023-04-10T17:09:29.916Z,15.00
2023-04-10T17:11:56.833Z,14.90
2023-04-10T17:14:24.099Z,15.00
2023-04-10T17:16:51.000Z,14.90
2023-04-10T17:19:17.895Z,14.80
2023-04-10T17:21:44.760Z,14.80
2023-04-10T17:24:11.599Z,14.80
2023-04-10T17:26:38.515Z,14.70
2023-04-10T17:29:05.390Z,14.70
2023-04-10T17:31:32.283Z,14.60
2023-04-10T17:33:59.153Z,14.60
2023-04-10T17:36:26.114Z,14.50
2023-04-10T17:38:54.169Z,14.50
2023-04-10T17:41:21.221Z,14.40
2023-04-10T17:43:49.063Z,14.30
2023-04-10T17:46:16.308Z,14.30
2023-04-10T17:48:44.041Z,14.20
2023-04-10T17:51:11.115Z,14.20
2023-04-10T17:53:38.178Z,14.20
2023-04-10T17:56:05.318Z,14.10
2023-04-10T17:58:32.172Z,14.00
2023-04-10T18:00:59.133Z,13.90
2023-04-10T18:03:26.210Z,13.90
2023-04-10T18:05:53.616Z,13.80
2023-04-10T18:08:20.443Z,13.70
2023-04-10T18:10:47.309Z,13.60
2023-04-10T18:13:14.183Z,13.60
2023-04-10T18:15:41.007Z,13.50
2023-04-10T18:18:07.886Z,13.50
2023-04-10T18:20:35.224Z,13.50
2023-04-10T18:23:04.389Z,13.50
2023-04-10T18:25:31.555Z,13.40
2023-04-10T18:28:13.930Z,13.40
2023-04-10T18:30:42.473Z,13.40
2023-04-10T18:33:11.257Z,13.40
2023-04-10T18:35:38.753Z,13.30
2023-04-10T18:38:05.778Z,13.30
2023-04-10T18:40:32.608Z,13.30
2023-04-10T18:42:59.443Z,13.20
2023-04-10T18:45:26.360Z,13.20
2023-04-10T18:47:53.308Z,13.20
2023-04-10T18:50:20.186Z,13.20
2023-04-10T18:52:47.084Z,13.20
2023-04-10T18:55:13.956Z,13.20
2023-04-10T18:57:40.816Z,13.10
2023-04-10T19:00:08.347Z,13.10
2023-04-10T19:02:35.449Z,13.10
2023-04-10T19:05:02.503Z,13.10
2023-04-10T19:07:29.377Z,13.10
2023-04-10T19:09:56.210Z,13.10
2023-04-10T19:12:23.087Z,13.00
2023-04-10T19:14:49.961Z,13.00
2023-04-10T19:17:16.811Z,13.10
2023-04-10T19:19:43.699Z,13.00
2023-04-10T19:22:10.580Z,13.00
2023-04-10T19:24:37.441Z,13.00
2023-04-10T19:27:04.312Z,13.00
2023-04-10T19:29:31.269Z,13.00
2023-04-10T19:31:58.125Z,12.90
2023-04-10T19:34:24.989Z,12.90
2023-04-10T19:36:51.874Z,12.90
2023-04-10T19:39:18.774Z,12.90
2023-04-10T19:41:45.624Z,12.80
2023-04-10T19:44:12.661Z,12.90
2023-04-10T19:46:39.725Z,12.80
2023-04-10T19:49:07.009Z,12.80
2023-04-10T19:51:33.922Z,12.80
2023-04-10T19:54:00.793Z,12.80
2023-04-10T19:56:27.659Z,12.80
2023-04-10T19:58:54.652Z,12.80
2023-04-10T20:01:21.584Z,12.80
2023-04-10T20:03:48.555Z,12.80
2023-04-10T20:06:16.308Z,12.70
2023-04-10T20:08:43.235Z,12.70
2023-04-10T20:11:10.092Z,12.70
2023-04-10T20:13:36.932Z,12.70
2023-04-10T20:16:03.833Z,12.70
2023-04-10T20:18:31.717Z,12.70
2023-04-10T20:20:58.613Z,12.70
2023-04-10T20:23:25.500Z,12.80
2023-04-10T20:25:52.427Z,12.70
2023-04-10T20:28:19.366Z,12.70
2023-04-10T20:30:46.264Z,12.70
2023-04-10T20:33:13.144Z,12.70
2023-04-10T20:35:40.115Z,12.70
2023-04-10T20:38:07.218Z,12.70
2023-04-10T20:40:34.115Z,12.70
2023-04-10T20:43:01.016Z,12.60
2023-04-10T20:45:27.887Z,12.60
2023-04-10T20:47:56.242Z,12.60
2023-04-10T20:50:23.246Z,12.60
2023-04-10T20:52:50.091Z,12.60
2023-04-10T20:55:17.120Z,12.60
2023-04-10T20:57:44.015Z,12.50
2023-04-10T21:00:11.553Z,12.50
2023-04-10T21:02:38.596Z,12.50
2023-04-10T21:05:05.991Z,12.50
2023-04-10T21:07:32.946Z,12.50
2023-04-10T21:09:59.858Z,12.60
2023-04-10T21:12:26.907Z,12.60
2023-04-10T21:14:53.805Z,12.60
2023-04-10T21:17:22.231Z,12.60
2023-04-10T21:19:49.178Z,12.60
2023-04-10T21:22:16.082Z,12.50
2023-04-10T21:24:42.901Z,12.50
2023-04-10T21:27:09.746Z,12.50
2023-04-10T21:29:36.586Z,12.50
2023-04-10T21:32:03.566Z,12.50
2023-04-10T21:34:30.466Z,12.50
2023-04-10T21:36:57.370Z,12.50
2023-04-10T21:39:24.270Z,12.50
2023-04-10T21:41:51.223Z,12.50
2023-04-10T21:44:18.666Z,12.50
2023-04-10T21:46:45.517Z,12.50
2023-04-10T21:49:12.472Z,12.50
2023-04-10T21:51:39.739Z,12.50
2023-04-10T21:54:06.896Z,12.50
2023-04-10T21:56:33.755Z,12.50
2023-04-10T21:59:01.437Z,12.50
2023-04-10T22:01:28.328Z,12.50
2023-04-10T22:03:55.272Z,12.40
2023-04-10T22:06:22.143Z,12.50
2023-04-10T22:08:49.250Z,12.50
2023-04-10T22:11:16.072Z,12.50
2023-04-10T22:13:43.083Z,12.40
2023-04-10T22:16:10.202Z,12.40
2023-04-10T22:18:37.065Z,12.40
2023-04-10T22:21:04.132Z,12.40
2023-04-10T22:23:31.621Z,12.40
2023-04-10T22:26:00.544Z,12.40
2023-04-10T22:28:28.725Z,12.30
2023-04-10T22:30:55.649Z,12.40
2023-04-10T22:33:22.561Z,12.40
2023-04-10T22:35:49.544Z,12.40
2023-04-10T22:38:16.398Z,12.40
2023-04-10T22:40:43.292Z,12.30
2023-04-10T22:43:10.177Z,12.30
2023-04-10T22:45:37.062Z,12.40
2023-04-10T22:48:04.076Z,12.30
2023-04-10T22:50:31.665Z,12.30
2023-04-10T22:52:58.533Z,12.30
2023-04-10T22:55:25.537Z,12.30
2023-04-10T22:57:52.635Z,12.30
2023-04-10T23:00:19.605Z,12.30
2023-04-10T23:02:46.756Z,12.30
2023-04-10T23:05:13.686Z,12.30
2023-04-10T23:07:40.570Z,12.40
2023-04-10T23:10:08.228Z,12.40
2023-04-10T23:12:35.103Z,12.30
2023-04-10T23:15:01.947Z,12.30
2023-04-10T23:17:29.082Z,12.20
2023-04-10T23:19:56.057Z,12.20
2023-04-10T23:22:22.998Z,12.20
2023-04-10T23:24:56.800Z,12.20
2023-04-10T23:27:24.190Z,12.20
2023-04-10T23:29:51.076Z,12.20
2023-04-10T23:32:17.968Z,12.10
2023-04-10T23:34:44.795Z,12.20
2023-04-10T23:37:11.742Z,12.20
2023-04-10T23:39:38.645Z,12.10
2023-04-10T23:42:05.544Z,12.30
2023-04-10T23:44:32.442Z,12.20
2023-04-10T23:46:59.397Z,12.30
2023-04-10T23:49:26.301Z,12.30
2023-04-10T23:51:53.154Z,12.30
2023-04-10T23:54:20.014Z,12.30
2023-04-10T23:56:46.861Z,12.30
2023-04-10T23:59:13.744Z,12.30
